createdAt,value
2023-05-05T00:01:21.920Z,79.52
2023-05-05T00:02:53.946Z,79.49
2023-05-05T00:04:25.826Z,79.66
2023-05-05T00:05:58.159Z,79.59
2023-05-05T00:07:30.021Z,80.12
2023-05-05T00:09:01.797Z,79.95
2023-05-05T00:10:33.656Z,80.48
2023-05-05T00:12:06.205Z,81.42
2023-05-05T00:13:38.260Z,81.11
2023-05-05T00:15:11.650Z,80.31
2023-05-05T00:16:43.562Z,80.55
2023-05-05T00:18:16.617Z,81.21
2023-05-05T00:19:48.481Z,82.35
2023-05-05T00:21:20.433Z,81.93
2023-05-05T00:22:52.295Z,80.83
2023-05-05T00:24:24.211Z,81.37
2023-05-05T00:25:56.065Z,80.29
2023-05-05T00:27:28.238Z,79.67
2023-05-05T00:29:00.245Z,80.22
2023-05-05T00:30:33.638Z,81.67
2023-05-05T00:32:05.546Z,80.88
2023-05-05T00:33:37.476Z,79.81
2023-05-05T00:35:09.648Z,79.64
2023-05-05T00:36:41.624Z,80.32
2023-05-05T00:38:13.624Z,79.89
2023-05-05T00:39:45.448Z,79.48
2023-05-05T00:41:17.539Z,79.94
2023-05-05T00:42:52.488Z,82.60
2023-05-05T00:44:35.179Z,82.14
2023-05-05T00:46:12.093Z,80.04
2023-05-05T00:47:45.390Z,81.01
2023-05-05T00:49:17.313Z,81.24
2023-05-05T00:50:49.503Z,83.83
2023-05-05T00:52:21.500Z,81.13
2023-05-05T00:53:53.374Z,81.54
2023-05-05T00:55:25.375Z,82.49
2023-05-05T00:56:57.350Z,81.68
2023-05-05T00:58:29.321Z,82.39
2023-05-05T01:00:01.441Z,82.05
2023-05-05T01:01:34.727Z,82.31
2023-05-05T01:03:06.733Z,82.24
2023-05-05T01:04:38.625Z,82.27
2023-05-05T01:06:16.402Z,82.49
2023-05-05T01:08:05.098Z,80.97
2023-05-05T01:09:39.248Z,80.84
2023-05-05T01:11:14.507Z,81.18
2023-05-05T01:12:49.292Z,81.15
2023-05-05T01:14:23.310Z,82.55
2023-05-05T01:15:56.864Z,82.03
2023-05-05T01:17:35.888Z,81.43
2023-05-05T01:19:16.229Z,81.23
2023-05-05T01:20:50.425Z,81.40
2023-05-05T01:22:24.438Z,81.29
2023-05-05T01:24:12.280Z,83.63
2023-05-05T01:26:06.140Z,82.61
2023-05-05T01:28:01.049Z,83.04
2023-05-05T01:29:41.423Z,83.25
2023-05-05T01:31:21.859Z,82.62
2023-05-05T01:32:58.348Z,83.06
2023-05-05T01:34:34.454Z,82.96
2023-05-05T01:36:09.181Z,82.23
2023-05-05T01:37:44.321Z,81.77
2023-05-05T01:39:16.276Z,82.38
2023-05-05T01:40:49.060Z,83.67
2023-05-05T01:42:20.852Z,83.18
2023-05-05T01:43:52.734Z,83.67
2023-05-05T01:45:26.057Z,82.46
2023-05-05T01:46:58.097Z,82.44
2023-05-05T01:48:33.410Z,81.95
2023-05-05T01:50:06.463Z,82.18
2023-05-05T01:51:38.855Z,82.57
2023-05-05T01:53:10.731Z,81.76
2023-05-05T01:54:43.048Z,82.19
2023-05-05T01:56:15.502Z,82.48
2023-05-05T01:57:47.344Z,81.89
2023-05-05T01:59:19.302Z,81.90
2023-05-05T02:00:51.196Z,82.40
2023-05-05T02:02:23.142Z,82.39
2023-05-05T02:03:57.312Z,82.28
2023-05-05T02:05:29.188Z,82.12
2023-05-05T02:07:01.429Z,82.47
2023-05-05T02:08:33.299Z,82.27
2023-05-05T02:10:08.298Z,82.29
2023-05-05T02:11:40.468Z,81.99
2023-05-05T02:13:15.645Z,81.81
2023-05-05T02:14:47.568Z,82.45
2023-05-05T02:16:19.394Z,82.38
2023-05-05T02:17:52.834Z,83.08
2023-05-05T02:19:28.753Z,83.72
2023-05-05T02:21:00.588Z,83.29
2023-05-05T02:22:32.578Z,83.11
2023-05-05T02:24:05.171Z,83.09
2023-05-05T02:25:44.423Z,82.38
2023-05-05T02:27:17.880Z,83.23
2023-05-05T02:28:51.831Z,82.56
2023-05-05T02:30:23.688Z,83.51
2023-05-05T02:31:56.017Z,83.10
2023-05-05T02:33:28.471Z,82.57
2023-05-05T02:35:04.671Z,82.53
2023-05-05T02:36:37.976Z,82.91
2023-05-05T02:38:13.695Z,83.88
2023-05-05T02:39:49.807Z,84.76
2023-05-05T02:41:21.734Z,82.78
2023-05-05T02:42:57.143Z,82.88
2023-05-05T02:44:29.253Z,83.19
2023-05-05T02:46:01.110Z,84.00
2023-05-05T02:47:36.230Z,84.26
2023-05-05T02:49:08.092Z,84.26
2023-05-05T02:50:41.385Z,84.27
2023-05-05T02:52:13.194Z,83.49
2023-05-05T02:53:45.212Z,84.33
2023-05-05T02:55:17.101Z,83.46
2023-05-05T02:56:49.747Z,82.90
2023-05-05T02:58:23.697Z,82.74
2023-05-05T02:59:59.815Z,82.72
2023-05-05T03:01:43.820Z,83.03
2023-05-05T03:03:18.517Z,84.28
2023-05-05T03:04:53.574Z,84.87
2023-05-05T03:06:27.540Z,83.70
2023-05-05T03:08:02.070Z,83.69
2023-05-05T03:09:37.488Z,83.39
2023-05-05T03:11:15.964Z,84.29
2023-05-05T03:12:49.910Z,83.17
2023-05-05T03:14:21.760Z,83.00
2023-05-05T03:15:53.777Z,83.12
2023-05-05T03:17:25.981Z,83.73
2023-05-05T03:18:58.797Z,83.18
2023-05-05T03:20:30.818Z,83.25
2023-05-05T03:22:06.519Z,82.90
2023-05-05T03:23:40.971Z,82.97
2023-05-05T03:25:18.645Z,83.10
2023-05-05T03:26:50.835Z,83.33
2023-05-05T03:28:24.884Z,82.96
2023-05-05T03:29:56.841Z,83.83
2023-05-05T03:31:28.880Z,83.80
2023-05-05T03:33:04.202Z,83.35
2023-05-05T03:34:37.859Z,83.78
2023-05-05T03:36:10.790Z,84.34
2023-05-05T03:37:44.121Z,83.70
2023-05-05T03:39:18.183Z,83.59
2023-05-05T03:40:50.177Z,83.14
2023-05-05T03:42:22.030Z,83.88
2023-05-05T03:43:53.867Z,84.08
2023-05-05T03:45:28.178Z,83.20
2023-05-05T03:47:02.886Z,83.14
2023-05-05T03:48:36.626Z,83.62
2023-05-05T03:50:09.445Z,84.26
2023-05-05T03:51:41.571Z,83.32
2023-05-05T03:53:14.830Z,85.70
2023-05-05T03:54:46.691Z,84.49
2023-05-05T03:56:18.549Z,83.86
2023-05-05T03:57:50.532Z,83.73
2023-05-05T03:59:22.345Z,85.79
2023-05-05T04:00:54.272Z,84.02
2023-05-05T04:02:32.631Z,85.01
2023-05-05T04:04:04.992Z,84.74
2023-05-05T04:06:23.087Z,84.52
2023-05-05T04:08:18.688Z,85.34
2023-05-05T04:09:51.765Z,84.99
2023-05-05T04:11:23.420Z,83.94
2023-05-05T04:12:55.080Z,84.07
2023-05-05T04:14:26.819Z,84.23
2023-05-05T04:15:59.795Z,84.91
2023-05-05T04:17:31.468Z,84.28
2023-05-05T04:19:03.938Z,83.66
2023-05-05T04:20:36.050Z,83.16
2023-05-05T04:22:07.668Z,83.15
2023-05-05T04:23:39.276Z,83.44
2023-05-05T04:25:12.289Z,83.23
2023-05-05T04:26:43.906Z,83.21
2023-05-05T04:28:15.912Z,83.71
2023-05-05T04:29:47.573Z,83.69
2023-05-05T04:31:19.250Z,83.79
2023-05-05T04:32:51.023Z,83.46
2023-05-05T04:34:22.734Z,83.31
2023-05-05T04:35:54.366Z,83.01
2023-05-05T04:37:25.957Z,85.83
2023-05-05T04:38:57.700Z,87.09
2023-05-05T04:40:31.257Z,88.67
2023-05-05T04:42:03.106Z,87.05
2023-05-05T04:43:34.717Z,85.83
2023-05-05T04:45:07.495Z,85.34
2023-05-05T04:46:39.163Z,85.99
2023-05-05T04:48:10.803Z,84.08
2023-05-05T04:49:42.517Z,83.92
2023-05-05T04:51:14.253Z,83.88
2023-05-05T04:52:45.940Z,83.37
2023-05-05T04:54:17.574Z,84.97
2023-05-05T04:55:50.633Z,83.94
2023-05-05T04:57:22.383Z,84.65
2023-05-05T04:58:54.004Z,83.99
2023-05-05T05:00:25.637Z,84.31
2023-05-05T05:01:57.335Z,84.49
2023-05-05T05:03:29.102Z,87.55
2023-05-05T05:05:00.835Z,89.48
2023-05-05T05:06:32.425Z,85.32
2023-05-05T05:08:04.537Z,84.03
2023-05-05T05:09:36.152Z,84.55
2023-05-05T05:11:09.120Z,84.62
2023-05-05T05:12:40.837Z,83.90
2023-05-05T05:14:12.418Z,83.81
2023-05-05T05:15:44.321Z,83.79
2023-05-05T05:17:16.110Z,84.04
2023-05-05T05:18:47.820Z,85.91
2023-05-05T05:20:19.826Z,84.85
2023-05-05T05:21:51.879Z,82.84
2023-05-05T05:23:23.520Z,88.63
2023-05-05T05:24:55.247Z,89.52
2023-05-05T05:26:28.327Z,88.77
2023-05-05T05:28:09.689Z,87.43
2023-05-05T05:29:43.522Z,89.47
2023-05-05T05:31:15.135Z,86.29
2023-05-05T05:32:46.817Z,86.04
2023-05-05T05:34:18.476Z,86.95
2023-05-05T05:35:50.102Z,87.18
2023-05-05T05:37:21.672Z,86.49
2023-05-05T05:38:53.467Z,87.71
2023-05-05T05:40:25.137Z,88.26
2023-05-05T05:41:58.099Z,87.79
2023-05-05T05:43:29.715Z,89.54
2023-05-05T05:45:01.645Z,89.23
2023-05-05T05:46:33.351Z,88.07
2023-05-05T05:48:05.672Z,88.08
2023-05-05T05:49:37.343Z,86.73
2023-05-05T05:51:08.973Z,86.54
2023-05-05T05:52:40.597Z,86.33
2023-05-05T05:54:12.586Z,87.91
2023-05-05T05:55:45.857Z,86.16
2023-05-05T05:57:19.065Z,87.13
2023-05-05T05:58:50.827Z,88.31
2023-05-05T06:00:25.310Z,86.08
2023-05-05T06:01:56.969Z,85.85
2023-05-05T06:03:28.895Z,85.63
2023-05-05T06:05:00.690Z,86.28
2023-05-05T06:06:32.336Z,85.62
2023-05-05T06:08:04.359Z,85.56
2023-05-05T06:09:36.081Z,85.86
2023-05-05T06:11:07.897Z,84.43
2023-05-05T06:12:40.897Z,85.43
2023-05-05T06:14:12.591Z,84.59
2023-05-05T06:15:44.314Z,85.02
2023-05-05T06:17:16.031Z,87.67
2023-05-05T06:18:47.730Z,85.85
2023-05-05T06:20:19.406Z,84.61
2023-05-05T06:21:51.176Z,85.38
2023-05-05T06:23:22.766Z,83.88
2023-05-05T06:24:54.345Z,83.64
2023-05-05T06:26:26.030Z,84.51
2023-05-05T06:28:00.060Z,82.97
2023-05-05T06:29:31.714Z,84.93
2023-05-05T06:31:03.440Z,84.50
2023-05-05T06:32:35.134Z,83.73
2023-05-05T06:34:06.768Z,84.55
2023-05-05T06:35:38.387Z,86.28
2023-05-05T06:37:09.965Z,87.28
2023-05-05T06:38:41.549Z,87.69
2023-05-05T06:40:13.417Z,86.73
2023-05-05T06:41:45.003Z,87.52
2023-05-05T06:43:18.079Z,89.02
2023-05-05T06:44:49.853Z,87.37
2023-05-05T06:46:21.870Z,88.33
2023-05-05T06:47:53.613Z,89.53
2023-05-05T06:49:25.459Z,89.57
2023-05-05T06:50:57.363Z,88.73
2023-05-05T06:52:28.992Z,89.17
2023-05-05T06:54:00.645Z,88.93
2023-05-05T06:55:32.309Z,87.53
2023-05-05T06:57:04.139Z,87.44
2023-05-05T06:58:38.236Z,87.74
2023-05-05T07:00:11.599Z,88.01
2023-05-05T07:01:43.299Z,85.99
2023-05-05T07:03:15.493Z,85.57
2023-05-05T07:04:47.488Z,85.27
2023-05-05T07:06:19.492Z,86.82
2023-05-05T07:07:52.654Z,87.19
2023-05-05T07:09:24.390Z,88.19
2023-05-05T07:10:56.181Z,86.50
2023-05-05T07:12:29.159Z,85.73
2023-05-05T07:14:02.323Z,86.43
2023-05-05T07:15:33.972Z,87.10
2023-05-05T07:17:05.752Z,86.27
2023-05-05T07:18:37.427Z,86.28
2023-05-05T07:20:09.765Z,87.43
2023-05-05T07:21:42.236Z,85.63
2023-05-05T07:23:14.116Z,85.65
2023-05-05T07:24:45.998Z,86.12
2023-05-05T07:26:17.649Z,85.77
2023-05-05T07:27:49.410Z,85.07
2023-05-05T07:29:22.520Z,85.83
2023-05-05T07:30:54.686Z,85.00
2023-05-05T07:32:26.412Z,83.84
2023-05-05T07:33:58.674Z,83.28
2023-05-05T07:35:30.484Z,83.98
2023-05-05T07:37:02.394Z,83.55
2023-05-05T07:38:35.045Z,82.92
2023-05-05T07:40:08.155Z,82.94
2023-05-05T07:41:43.924Z,83.08
2023-05-05T07:43:15.815Z,83.31
2023-05-05T07:44:48.831Z,82.51
2023-05-05T07:46:20.590Z,82.34
2023-05-05T07:47:52.273Z,82.14
2023-05-05T07:49:23.961Z,81.25
2023-05-05T07:50:56.166Z,81.27
2023-05-05T07:52:44.295Z,82.19
2023-05-05T07:54:19.597Z,81.92
2023-05-05T07:55:51.321Z,81.48
2023-05-05T07:57:23.098Z,81.37
2023-05-05T07:58:55.366Z,80.10
2023-05-05T08:00:28.364Z,81.38
2023-05-05T08:02:00.037Z,81.40
2023-05-05T08:03:31.869Z,81.12
2023-05-05T08:05:04.633Z,80.73
2023-05-05T08:06:36.361Z,80.56
2023-05-05T08:08:08.061Z,80.75
2023-05-05T08:09:39.833Z,78.91
2023-05-05T08:11:11.442Z,78.98
2023-05-05T08:12:43.295Z,79.13
2023-05-05T08:14:15.595Z,79.52
2023-05-05T08:15:48.634Z,79.58
2023-05-05T08:17:20.420Z,78.04
2023-05-05T08:18:52.333Z,78.55
2023-05-05T08:20:28.041Z,77.54
2023-05-05T08:22:01.795Z,76.81
2023-05-05T08:23:33.602Z,75.92
2023-05-05T08:25:06.914Z,77.55
2023-05-05T08:26:39.186Z,76.16
2023-05-05T08:28:11.090Z,78.47
2023-05-05T08:29:42.964Z,75.12
2023-05-05T08:31:16.007Z,75.47
2023-05-05T08:32:47.706Z,74.16
2023-05-05T08:34:19.938Z,74.99
2023-05-05T08:35:51.649Z,74.64
2023-05-05T08:37:23.311Z,75.46
2023-05-05T08:38:55.048Z,74.52
2023-05-05T08:40:30.116Z,74.61
2023-05-05T08:42:02.390Z,74.91
2023-05-05T08:43:34.889Z,73.68
2023-05-05T08:45:08.390Z,72.52
2023-05-05T08:46:41.902Z,72.52
2023-05-05T08:48:13.658Z,71.74
2023-05-05T08:49:46.428Z,71.98
2023-05-05T08:51:21.488Z,70.49
2023-05-05T08:52:54.535Z,70.73
2023-05-05T08:54:26.418Z,70.26
2023-05-05T08:55:58.070Z,71.94
2023-05-05T08:57:48.052Z,70.93
2023-05-05T08:59:19.764Z,70.44
2023-05-05T09:00:51.781Z,71.80
2023-05-05T09:02:28.405Z,69.23
2023-05-05T09:04:00.241Z,68.53
2023-05-05T09:05:31.899Z,71.36
2023-05-05T09:07:03.505Z,68.99
2023-05-05T09:08:35.130Z,69.76
2023-05-05T09:10:08.309Z,69.27
2023-05-05T09:11:39.964Z,67.75
2023-05-05T09:13:11.716Z,66.74
2023-05-05T09:14:43.563Z,67.99
2023-05-05T09:16:15.307Z,67.87
2023-05-05T09:17:51.177Z,66.06
2023-05-05T09:19:22.886Z,65.69
2023-05-05T09:20:55.149Z,64.54
2023-05-05T09:22:36.608Z,66.62
2023-05-05T09:24:09.388Z,64.37
2023-05-05T09:25:42.792Z,62.19
2023-05-05T09:27:21.461Z,63.30
2023-05-05T09:28:53.522Z,62.33
2023-05-05T09:30:25.977Z,60.37
2023-05-05T09:32:08.518Z,61.92
2023-05-05T09:33:41.958Z,61.54
2023-05-05T09:35:13.655Z,62.24
2023-05-05T09:36:47.894Z,61.01
2023-05-05T09:38:19.782Z,59.78
2023-05-05T09:39:53.725Z,60.21
2023-05-05T09:41:36.708Z,60.16
2023-05-05T09:43:08.566Z,59.40
2023-05-05T09:44:40.745Z,60.04
2023-05-05T09:46:13.008Z,60.18
2023-05-05T09:47:45.739Z,59.42
2023-05-05T09:49:19.547Z,60.88
2023-05-05T09:50:51.203Z,62.37
2023-05-05T09:52:22.971Z,63.74
2023-05-05T09:53:54.622Z,62.23
2023-05-05T09:55:26.299Z,62.96
2023-05-05T09:56:57.950Z,63.22
2023-05-05T09:58:30.664Z,62.24
2023-05-05T10:00:04.134Z,61.65
2023-05-05T10:01:35.924Z,62.25
2023-05-05T10:03:07.662Z,61.72
2023-05-05T10:04:40.824Z,60.94
2023-05-05T10:06:12.516Z,61.55
2023-05-05T10:07:46.103Z,61.29
2023-05-05T10:09:17.743Z,62.37
2023-05-05T10:10:53.209Z,60.76
2023-05-05T10:12:25.322Z,60.04
2023-05-05T10:13:57.076Z,60.34
2023-05-05T10:15:28.676Z,60.74
2023-05-05T10:17:00.296Z,60.79
2023-05-05T10:18:32.201Z,60.72
2023-05-05T10:20:06.963Z,60.58
2023-05-05T10:21:40.903Z,60.67
2023-05-05T10:23:15.559Z,61.48
2023-05-05T10:24:48.418Z,62.96
2023-05-05T10:26:20.075Z,62.61
2023-05-05T10:27:53.950Z,62.38
2023-05-05T10:29:31.403Z,59.88
2023-05-05T10:31:12.892Z,60.56
2023-05-05T10:33:04.375Z,60.33
2023-05-05T10:34:50.891Z,59.90
2023-05-05T10:36:24.529Z,59.33
2023-05-05T10:37:57.726Z,60.16
2023-05-05T10:39:29.349Z,60.12
2023-05-05T10:41:01.996Z,61.85
2023-05-05T10:42:33.734Z,60.69
2023-05-05T10:44:05.894Z,61.08
2023-05-05T10:45:37.658Z,60.34
2023-05-05T10:47:09.354Z,61.53
2023-05-05T10:48:47.156Z,60.97
2023-05-05T10:50:27.220Z,59.12
2023-05-05T10:52:05.124Z,58.54
2023-05-05T10:53:41.324Z,59.56
2023-05-05T10:55:15.030Z,59.54
2023-05-05T10:56:46.846Z,60.43
2023-05-05T10:58:43.748Z,59.83
2023-05-05T11:00:57.637Z,59.74
2023-05-05T11:02:29.661Z,57.96
2023-05-05T11:04:18.179Z,58.73
2023-05-05T11:06:12.567Z,57.57
2023-05-05T11:07:46.159Z,57.95
2023-05-05T11:09:27.839Z,57.87
2023-05-05T11:10:59.600Z,56.86
2023-05-05T11:12:32.473Z,59.70
2023-05-05T11:14:19.480Z,58.98
2023-05-05T11:15:51.675Z,59.55
2023-05-05T11:17:44.380Z,57.75
2023-05-05T11:19:45.861Z,57.60
2023-05-05T11:21:17.954Z,56.93
2023-05-05T11:23:25.757Z,57.21
2023-05-05T11:24:57.480Z,57.40
2023-05-05T11:26:51.518Z,56.87
2023-05-05T11:28:25.612Z,55.86
2023-05-05T11:30:10.447Z,56.42
2023-05-05T11:31:42.503Z,56.20
2023-05-05T11:33:23.421Z,56.88
2023-05-05T11:34:55.071Z,56.49
2023-05-05T11:36:39.153Z,55.77
2023-05-05T11:38:10.777Z,55.97
2023-05-05T11:39:49.914Z,55.49
2023-05-05T11:41:27.371Z,57.35
2023-05-05T11:43:05.501Z,56.55
2023-05-05T11:44:37.404Z,58.17
2023-05-05T11:46:12.633Z,58.12
2023-05-05T11:47:44.351Z,56.21
2023-05-05T11:49:24.111Z,55.60
2023-05-05T11:50:55.746Z,55.30
2023-05-05T11:52:27.518Z,55.51
2023-05-05T11:53:59.396Z,53.72
2023-05-05T11:55:32.406Z,54.98
2023-05-05T11:57:10.217Z,55.63
2023-05-05T11:58:42.009Z,53.59
2023-05-05T12:00:17.190Z,54.37
2023-05-05T12:01:48.784Z,54.30
2023-05-05T12:03:20.501Z,52.73
2023-05-05T12:04:52.575Z,52.76
2023-05-05T12:06:24.727Z,53.42
2023-05-05T12:07:57.735Z,53.48
2023-05-05T12:09:29.408Z,53.97
2023-05-05T12:11:06.186Z,53.93
2023-05-05T12:12:39.432Z,53.57
2023-05-05T12:14:11.481Z,53.61
2023-05-05T12:15:43.167Z,54.67
2023-05-05T12:17:15.007Z,53.46
2023-05-05T12:18:46.621Z,52.54
2023-05-05T12:20:18.321Z,53.77
2023-05-05T12:21:50.013Z,52.87
2023-05-05T12:23:21.736Z,53.16
2023-05-05T12:24:55.106Z,51.88
2023-05-05T12:26:29.150Z,53.76
2023-05-05T12:28:00.929Z,51.97
2023-05-05T12:29:32.536Z,51.15
2023-05-05T12:31:04.326Z,51.66
2023-05-05T12:32:36.051Z,50.84
2023-05-05T12:34:08.717Z,51.97
2023-05-05T12:35:41.571Z,51.56
2023-05-05T12:37:13.200Z,51.70
2023-05-05T12:38:44.832Z,50.46
2023-05-05T12:40:45.073Z,50.03
2023-05-05T12:42:19.073Z,51.21
2023-05-05T12:43:54.626Z,50.63
2023-05-05T12:45:26.435Z,50.78
2023-05-05T12:46:59.183Z,50.93
2023-05-05T12:48:31.022Z,51.32
2023-05-05T12:50:03.410Z,51.88
2023-05-05T12:51:35.988Z,50.46
2023-05-05T12:53:07.689Z,51.41
2023-05-05T12:54:53.585Z,51.73
2023-05-05T12:56:33.761Z,51.97
2023-05-05T12:58:07.084Z,50.51
2023-05-05T12:59:38.716Z,51.22
2023-05-05T13:01:10.559Z,50.13
2023-05-05T13:02:42.489Z,51.44
2023-05-05T13:04:14.430Z,49.20
2023-05-05T13:05:46.237Z,49.84
2023-05-05T13:07:19.580Z,49.27
2023-05-05T13:08:52.036Z,48.99
2023-05-05T13:10:25.054Z,50.10
2023-05-05T13:11:56.819Z,50.07
2023-05-05T13:13:32.065Z,50.12
2023-05-05T13:15:04.347Z,50.06
2023-05-05T13:16:36.149Z,49.11
2023-05-05T13:18:07.801Z,48.14
2023-05-05T13:19:45.948Z,48.27
2023-05-05T13:21:17.661Z,49.13
2023-05-05T13:22:49.416Z,50.41
2023-05-05T13:24:28.541Z,49.94
2023-05-05T13:26:06.403Z,49.64
2023-05-05T13:27:38.012Z,46.31
2023-05-05T13:29:11.249Z,49.04
2023-05-05T13:30:42.934Z,50.26
2023-05-05T13:32:14.557Z,49.83
2023-05-05T13:33:46.351Z,48.36
2023-05-05T13:35:18.055Z,47.42
2023-05-05T13:36:49.907Z,49.21
2023-05-05T13:38:21.588Z,48.10
2023-05-05T13:39:55.419Z,48.79
2023-05-05T13:41:26.983Z,49.11
2023-05-05T13:42:58.700Z,48.46
2023-05-05T13:44:32.007Z,47.02
2023-05-05T13:46:18.698Z,45.08
2023-05-05T13:47:51.028Z,48.20
2023-05-05T13:49:22.742Z,45.87
2023-05-05T13:50:54.364Z,45.07
2023-05-05T13:52:26.126Z,46.44
2023-05-05T13:53:57.849Z,45.68
2023-05-05T13:55:29.857Z,45.76
2023-05-05T13:57:02.978Z,45.49
2023-05-05T13:58:37.171Z,45.80
2023-05-05T14:00:11.918Z,46.15
2023-05-05T14:01:43.683Z,46.85
2023-05-05T14:03:15.347Z,46.00
2023-05-05T14:04:47.207Z,46.59
2023-05-05T14:06:18.804Z,46.68
2023-05-05T14:07:50.414Z,46.06
2023-05-05T14:09:22.396Z,48.08
2023-05-05T14:10:54.016Z,48.27
2023-05-05T14:12:25.684Z,48.90
2023-05-05T14:13:57.664Z,46.21
2023-05-05T14:15:30.669Z,48.07
2023-05-05T14:17:02.481Z,47.51
2023-05-05T14:18:34.247Z,46.86
2023-05-05T14:20:07.153Z,48.04
2023-05-05T14:21:38.771Z,47.34
2023-05-05T14:23:10.387Z,47.46
2023-05-05T14:24:42.152Z,49.12
2023-05-05T14:26:13.982Z,48.49
2023-05-05T14:27:45.936Z,49.11
2023-05-05T14:29:17.692Z,49.15
2023-05-05T14:30:50.757Z,49.98
2023-05-05T14:32:23.119Z,48.13
2023-05-05T14:33:54.836Z,46.65
2023-05-05T14:35:26.560Z,48.48
2023-05-05T14:36:58.253Z,49.04
2023-05-05T14:38:29.862Z,47.31
2023-05-05T14:40:03.028Z,47.46
2023-05-05T14:41:36.006Z,48.18
2023-05-05T14:43:07.625Z,48.41
2023-05-05T14:44:39.238Z,47.18
2023-05-05T14:46:12.307Z,47.66
2023-05-05T14:47:44.023Z,48.10
2023-05-05T14:49:15.749Z,48.26
2023-05-05T14:50:47.405Z,49.23
2023-05-05T14:52:19.013Z,47.85
2023-05-05T14:53:50.681Z,48.78
2023-05-05T14:55:22.329Z,48.38
2023-05-05T14:56:53.956Z,48.26
2023-05-05T14:58:25.683Z,49.32
2023-05-05T14:59:57.330Z,50.77
2023-05-05T15:01:30.406Z,49.35
2023-05-05T15:03:02.092Z,51.24
2023-05-05T15:04:33.809Z,50.50
2023-05-05T15:06:05.577Z,47.79
2023-05-05T15:07:37.657Z,47.76
2023-05-05T15:09:09.575Z,47.88
2023-05-05T15:10:41.273Z,47.50
2023-05-05T15:12:12.952Z,47.47
2023-05-05T15:13:44.575Z,50.13
2023-05-05T15:15:16.375Z,50.86
2023-05-05T15:16:49.518Z,51.11
2023-05-05T15:18:21.284Z,48.80
2023-05-05T15:19:53.035Z,50.16
2023-05-05T15:21:24.852Z,48.83
2023-05-05T15:22:56.664Z,48.46
2023-05-05T15:24:28.324Z,50.15
2023-05-05T15:26:00.009Z,49.29
2023-05-05T15:27:31.827Z,49.06
2023-05-05T15:29:03.890Z,49.38
2023-05-05T15:30:35.821Z,50.19
2023-05-05T15:32:08.837Z,51.02
2023-05-05T15:33:40.569Z,51.35
2023-05-05T15:35:12.362Z,55.11
2023-05-05T15:36:44.012Z,54.76
2023-05-05T15:38:16.088Z,55.99
2023-05-05T15:39:47.688Z,56.33
2023-05-05T15:42:06.157Z,55.52
2023-05-05T15:43:12.053Z,55.73
2023-05-05T15:44:44.834Z,56.80
2023-05-05T15:46:16.548Z,57.38
2023-05-05T15:47:50.525Z,58.08
2023-05-05T15:49:22.192Z,57.75
2023-05-05T15:50:54.332Z,56.72
2023-05-05T15:52:26.030Z,56.59
2023-05-05T15:53:57.726Z,57.26
2023-05-05T15:55:29.749Z,57.36
2023-05-05T15:57:03.088Z,56.90
2023-05-05T15:58:34.684Z,56.29
2023-05-05T16:00:07.889Z,56.94
2023-05-05T16:01:39.790Z,56.80
2023-05-05T16:03:12.997Z,57.96
2023-05-05T16:04:47.951Z,57.76
2023-05-05T16:06:19.961Z,55.99
2023-05-05T16:07:55.743Z,56.57
2023-05-05T16:09:27.526Z,56.39
2023-05-05T16:10:59.192Z,59.19
2023-05-05T16:12:30.893Z,61.11
2023-05-05T16:14:02.655Z,62.47
2023-05-05T16:15:34.586Z,61.58
2023-05-05T16:17:07.556Z,61.82
2023-05-05T16:18:40.793Z,61.50
2023-05-05T16:20:13.053Z,63.21
2023-05-05T16:21:44.944Z,66.02
2023-05-05T16:23:16.818Z,73.01
2023-05-05T16:24:48.538Z,76.46
2023-05-05T16:26:22.000Z,75.64
2023-05-05T16:28:03.085Z,78.48
2023-05-05T16:29:34.688Z,77.92
2023-05-05T16:31:06.318Z,77.78
2023-05-05T16:32:38.101Z,77.99
2023-05-05T16:34:11.191Z,79.57
2023-05-05T16:35:43.687Z,80.87
2023-05-05T16:37:15.540Z,78.67
2023-05-05T16:38:47.207Z,79.79
2023-05-05T16:40:19.156Z,78.72
2023-05-05T16:41:50.824Z,79.18
2023-05-05T16:43:22.667Z,79.11
2023-05-05T16:44:54.673Z,78.83
2023-05-05T16:46:34.372Z,78.42
2023-05-05T16:48:08.891Z,77.67
2023-05-05T16:49:42.277Z,78.16
2023-05-05T16:51:14.090Z,78.51
2023-05-05T16:52:45.961Z,79.91
2023-05-05T16:54:17.617Z,79.74
2023-05-05T16:55:50.040Z,78.40
2023-05-05T16:57:22.185Z,80.82
2023-05-05T16:58:53.834Z,80.19
2023-05-05T17:00:25.770Z,80.31
2023-05-05T17:01:57.799Z,80.16
2023-05-05T17:03:29.445Z,81.41
2023-05-05T17:05:02.517Z,79.34
2023-05-05T17:06:34.203Z,80.18
2023-05-05T17:08:05.837Z,80.95
2023-05-05T17:09:37.478Z,80.73
2023-05-05T17:11:11.488Z,79.95
2023-05-05T17:12:43.574Z,79.32
2023-05-05T17:14:15.298Z,77.96
2023-05-05T17:15:46.971Z,80.93
2023-05-05T17:17:18.617Z,81.63
2023-05-05T17:18:50.278Z,79.93
2023-05-05T17:20:23.492Z,78.17
2023-05-05T17:21:55.232Z,77.75
2023-05-05T17:23:27.151Z,79.15
2023-05-05T17:24:59.020Z,80.36
2023-05-05T17:26:30.810Z,80.17
2023-05-05T17:28:02.795Z,79.92
2023-05-05T17:29:39.362Z,80.28
2023-05-05T17:31:11.030Z,79.37
2023-05-05T17:32:42.736Z,79.16
2023-05-05T17:34:14.371Z,79.65
2023-05-05T17:35:47.367Z,79.92
2023-05-05T17:37:19.047Z,81.65
2023-05-05T17:38:50.721Z,81.30
2023-05-05T17:40:22.618Z,81.35
2023-05-05T17:41:54.323Z,80.96
2023-05-05T17:43:25.924Z,79.56
2023-05-05T17:44:57.556Z,80.06
2023-05-05T17:46:29.221Z,79.28
2023-05-05T17:48:00.873Z,79.59
2023-05-05T17:49:32.624Z,79.75
2023-05-05T17:51:05.735Z,80.27
2023-05-05T17:52:37.383Z,81.07
2023-05-05T17:54:09.098Z,79.34
2023-05-05T17:55:44.578Z,78.09
2023-05-05T17:57:20.929Z,79.03
2023-05-05T17:58:53.126Z,79.13
2023-05-05T18:00:25.034Z,78.42
2023-05-05T18:01:56.647Z,78.36
2023-05-05T18:03:28.485Z,77.62
2023-05-05T18:05:04.084Z,78.14
2023-05-05T18:06:38.701Z,77.60
2023-05-05T18:08:10.634Z,77.01
2023-05-05T18:09:45.334Z,77.76
2023-05-05T18:11:39.367Z,76.84
2023-05-05T18:13:16.831Z,76.88
2023-05-05T18:14:49.587Z,77.22
2023-05-05T18:16:22.506Z,77.37
2023-05-05T18:17:56.213Z,77.98
2023-05-05T18:19:31.167Z,77.47
2023-05-05T18:21:06.531Z,77.61
2023-05-05T18:22:39.550Z,77.72
2023-05-05T18:24:20.083Z,78.04
2023-05-05T18:25:54.490Z,78.40
2023-05-05T18:27:27.317Z,77.69
2023-05-05T18:28:59.155Z,77.82
2023-05-05T18:30:32.102Z,78.72
2023-05-05T18:32:05.821Z,79.58
2023-05-05T18:33:38.056Z,80.24
2023-05-05T18:35:10.178Z,80.17
2023-05-05T18:36:43.011Z,79.80
2023-05-05T18:38:19.497Z,81.19
2023-05-05T18:39:52.294Z,80.71
2023-05-05T18:41:25.390Z,81.04
2023-05-05T18:42:57.845Z,80.93
2023-05-05T18:44:30.542Z,81.19
2023-05-05T18:46:02.628Z,81.54
2023-05-05T18:47:35.167Z,81.57
2023-05-05T18:49:07.344Z,82.06
2023-05-05T18:50:38.954Z,81.51
2023-05-05T18:52:10.653Z,80.50
2023-05-05T18:53:43.790Z,80.82
2023-05-05T18:55:15.421Z,80.84
2023-05-05T18:56:46.999Z,81.46
2023-05-05T18:58:18.773Z,81.90
2023-05-05T18:59:50.473Z,79.98
2023-05-05T19:01:23.371Z,80.23
2023-05-05T19:02:55.119Z,80.65
2023-05-05T19:04:31.730Z,79.66
2023-05-05T19:06:06.236Z,79.78
2023-05-05T19:07:40.276Z,79.56
2023-05-05T19:09:14.249Z,79.53
2023-05-05T19:10:51.749Z,80.14
2023-05-05T19:12:23.382Z,79.23
2023-05-05T19:14:12.010Z,79.08
2023-05-05T19:15:44.741Z,78.93
2023-05-05T19:17:16.614Z,78.64
2023-05-05T19:18:48.385Z,77.84
2023-05-05T19:20:20.185Z,77.96
2023-05-05T19:21:54.806Z,79.38
2023-05-05T19:23:26.441Z,78.96
2023-05-05T19:25:01.824Z,80.19
2023-05-05T19:26:33.432Z,79.71
2023-05-05T19:28:05.133Z,79.94
2023-05-05T19:29:36.884Z,79.27
2023-05-05T19:31:08.670Z,79.81
2023-05-05T19:32:40.416Z,81.00
2023-05-05T19:34:12.108Z,80.03
2023-05-05T19:35:43.871Z,80.27
2023-05-05T19:37:15.533Z,80.77
2023-05-05T19:38:50.372Z,80.33
2023-05-05T19:40:23.643Z,80.87
2023-05-05T19:41:56.845Z,80.09
2023-05-05T19:43:28.510Z,81.39
2023-05-05T19:45:01.077Z,80.51
2023-05-05T19:46:32.938Z,80.46
2023-05-05T19:48:05.570Z,80.15
2023-05-05T19:49:37.206Z,81.02
2023-05-05T19:51:08.846Z,80.22
2023-05-05T19:52:41.812Z,80.00
2023-05-05T19:54:15.990Z,79.41
2023-05-05T19:55:52.196Z,80.02
2023-05-05T19:57:29.474Z,79.80
2023-05-05T19:59:01.961Z,79.67
2023-05-05T20:00:33.601Z,80.01
2023-05-05T20:02:05.329Z,81.08
2023-05-05T20:03:37.042Z,79.75
2023-05-05T20:05:11.458Z,80.23